sensor_id;sensor_type;location;lat;lon;timestamp;pressure;altitude;pressure_sealevel;temperature;humidity
31538;BME280;18147;51.952;6.146;2023-11-22T00:01:49;102762.59;;;3.63;100.00
31538;BME280;18147;51.952;6.146;2023-11-22T00:04:15;102762.53;;;3.74;100.00
31538;BME280;18147;51.952;6.146;2023-11-22T00:06:40;102759.06;;;3.63;100.00
31538;BME280;18147;51.952;6.146;2023-11-22T00:09:06;102755.56;;;3.55;100.00
31538;BME280;18147;51.952;6.146;2023-11-22T00:11:32;102751.19;;;3.58;100.00
31538;BME280;18147;51.952;6.146;2023-11-22T00:13:57;102764.38;;;3.51;100.00
31538;BME280;18147;51.952;6.146;2023-11-22T00:16:23;102752.06;;;3.62;100.00
31538;BME280;18147;51.952;6.146;2023-11-22T00:18:48;102757.28;;;3.68;100.00
31538;BME280;18147;51.952;6.146;2023-11-22T00:21:14;102759.06;;;3.63;100.00
31538;BME280;18147;51.952;6.146;2023-11-22T00:23:39;102755.59;;;3.52;100.00
31538;BME280;18147;51.952;6.146;2023-11-22T00:26:05;102772.28;;;3.55;100.00
31538;BME280;18147;51.952;6.146;2023-11-22T00:28:32;102774.94;;;3.48;100.00
31538;BME280;18147;51.952;6.146;2023-11-22T00:30:57;102781.94;;;3.59;100.00
31538;BME280;18147;51.952;6.146;2023-11-22T00:33:24;102782.00;;;3.47;100.00
31538;BME280;18147;51.952;6.146;2023-11-22T00:35:49;102779.28;;;3.61;100.00
31538;BME280;18147;51.952;6.146;2023-11-22T00:38:16;102779.25;;;3.70;100.00
31538;BME280;18147;51.952;6.146;2023-11-22T00:40:42;102781.91;;;3.69;100.00
31538;BME280;18147;51.952;6.146;2023-11-22T00:43:07;102779.31;;;3.59;100.00
31538;BME280;18147;51.952;6.146;2023-11-22T00:45:34;102781.97;;;3.52;100.00
31538;BME280;18147;51.952;6.146;2023-11-22T00:48:00;102777.56;;;3.57;100.00
31538;BME280;18147;51.952;6.146;2023-11-22T00:50:26;102778.44;;;3.50;100.00
31538;BME280;18147;51.952;6.146;2023-11-22T00:52:53;102777.56;;;3.51;100.00
31538;BME280;18147;51.952;6.146;2023-11-22T00:55:19;102778.50;;;3.28;100.00
31538;BME280;18147;51.952;6.146;2023-11-22T00:57:44;102789.00;;;3.41;100.00
31538;BME280;18147;51.952;6.146;2023-11-22T01:00:10;102796.97;;;3.33;100.00
31538;BME280;18147;51.952;6.146;2023-11-22T01:02:37;102807.47;;;3.44;100.00
31538;BME280;18147;51.952;6.146;2023-11-22T01:05:07;102807.50;;;3.34;100.00
31538;BME280;18147;51.952;6.146;2023-11-22T01:07:36;102807.47;;;3.36;100.00
31538;BME280;18147;51.952;6.146;2023-11-22T01:10:02;102802.25;;;3.28;100.00
31538;BME280;18147;51.952;6.146;2023-11-22T01:12:28;102812.75;;;3.34;100.00
31538;BME280;18147;51.952;6.146;2023-11-22T01:14:53;102814.53;;;3.34;100.00
31538;BME280;18147;51.952;6.146;2023-11-22T01:17:19;102810.16;;;3.28;100.00
31538;BME280;18147;51.952;6.146;2023-11-22T01:19:44;102818.03;;;3.34;100.00
31538;BME280;18147;51.952;6.146;2023-11-22T01:22:10;102811.91;;;3.26;100.00
31538;BME280;18147;51.952;6.146;2023-11-22T01:24:35;102821.56;;;3.29;100.00
31538;BME280;18147;51.952;6.146;2023-11-22T01:27:03;102821.56;;;3.29;100.00
31538;BME280;18147;51.952;6.146;2023-11-22T01:29:29;102829.47;;;3.30;100.00
31538;BME280;18147;51.952;6.146;2023-11-22T01:31:54;102823.28;;;3.41;100.00
31538;BME280;18147;51.952;6.146;2023-11-22T01:34:20;102825.09;;;3.28;100.00
31538;BME280;18147;51.952;6.146;2023-11-22T01:36:49;102838.28;;;3.17;100.00
31538;BME280;18147;51.952;6.146;2023-11-22T01:39:15;102846.19;;;3.08;100.00
31538;BME280;18147;51.952;6.146;2023-11-22T01:41:43;102844.44;;;3.13;100.00
31538;BME280;18147;51.952;6.146;2023-11-22T01:44:09;102839.16;;;3.07;100.00
31538;BME280;18147;51.952;6.146;2023-11-22T01:46:34;102844.41;;;3.05;100.00
31538;BME280;18147;51.952;6.146;2023-11-22T01:49:00;102854.06;;;3.16;100.00
31538;BME280;18147;51.952;6.146;2023-11-22T01:51:27;102853.22;;;3.17;100.00
31538;BME280;18147;51.952;6.146;2023-11-22T01:53:55;102850.56;;;3.18;100.00
31538;BME280;18147;51.952;6.146;2023-11-22T01:56:23;102841.78;;;3.19;100.00
31538;BME280;18147;51.952;6.146;2023-11-22T01:58:51;102843.53;;;3.19;100.00
31538;BME280;18147;51.952;6.146;2023-11-22T02:01:20;102836.53;;;3.08;100.00
31538;BME280;18147;51.952;6.146;2023-11-22T02:03:46;102847.94;;;3.07;100.00
31538;BME280;18147;51.952;6.146;2023-11-22T02:06:15;102842.66;;;2.98;100.00
31538;BME280;18147;51.952;6.146;2023-11-22T02:08:41;102848.81;;;3.11;100.00
31538;BME280;18147;51.952;6.146;2023-11-22T02:11:08;102835.63;;;3.00;100.00
31538;BME280;18147;51.952;6.146;2023-11-22T02:13:34;102826.84;;;3.03;100.00
31538;BME280;18147;51.952;6.146;2023-11-22T02:15:59;102825.97;;;3.01;100.00
31538;BME280;18147;51.952;6.146;2023-11-22T02:18:27;102822.47;;;2.99;100.00
31538;BME280;18147;51.952;6.146;2023-11-22T02:20:52;102823.34;;;2.98;100.00
31538;BME280;18147;51.952;6.146;2023-11-22T02:23:18;102833.00;;;2.87;100.00
31538;BME280;18147;51.952;6.146;2023-11-22T02:25:44;102837.38;;;2.91;100.00
31538;BME280;18147;51.952;6.146;2023-11-22T02:28:11;102845.28;;;2.84;100.00
31538;BME280;18147;51.952;6.146;2023-11-22T02:30:37;102840.91;;;2.79;100.00
31538;BME280;18147;51.952;6.146;2023-11-22T02:33:03;102847.03;;;2.81;100.00
31538;BME280;18147;51.952;6.146;2023-11-22T02:35:30;102851.41;;;2.70;100.00
31538;BME280;18147;51.952;6.146;2023-11-22T02:37:57;102851.41;;;2.70;100.00
31538;BME280;18147;51.952;6.146;2023-11-22T02:40:23;102861.97;;;2.83;100.00
31538;BME280;18147;51.952;6.146;2023-11-22T02:42:50;102857.56;;;2.81;100.00
31538;BME280;18147;51.952;6.146;2023-11-22T02:45:17;102859.31;;;2.73;100.00
31538;BME280;18147;51.952;6.146;2023-11-22T02:47:43;102861.09;;;2.72;100.00
31538;BME280;18147;51.952;6.146;2023-11-22T02:50:10;102864.59;;;2.77;100.00
31538;BME280;18147;51.952;6.146;2023-11-22T02:52:37;102861.09;;;2.74;100.00
31538;BME280;18147;51.952;6.146;2023-11-22T02:55:03;102860.19;;;2.70;100.00
31538;BME280;18147;51.952;6.146;2023-11-22T02:57:30;102856.66;;;2.59;100.00
31538;BME280;18147;51.952;6.146;2023-11-22T02:59:56;102856.66;;;2.57;100.00
31538;BME280;18147;51.952;6.146;2023-11-22T03:02:22;102854.03;;;2.51;100.00
31538;BME280;18147;51.952;6.146;2023-11-22T03:04:47;102854.03;;;2.51;100.00
31538;BME280;18147;51.952;6.146;2023-11-22T03:07:13;102857.50;;;2.49;100.00
31538;BME280;18147;51.952;6.146;2023-11-22T03:09:39;102850.50;;;2.42;100.00
31538;BME280;18147;51.952;6.146;2023-11-22T03:12:06;102849.59;;;2.46;100.00
31538;BME280;18147;51.952;6.146;2023-11-22T03:14:34;102860.13;;;2.43;100.00
31538;BME280;18147;51.952;6.146;2023-11-22T03:17:00;102854.00;;;2.44;100.00
31538;BME280;18147;51.952;6.146;2023-11-22T03:19:26;102857.50;;;2.43;100.00
31538;BME280;18147;51.952;6.146;2023-11-22T03:21:51;102851.34;;;2.36;100.00
31538;BME280;18147;51.952;6.146;2023-11-22T03:24:17;102856.59;;;2.34;100.00
31538;BME280;18147;51.952;6.146;2023-11-22T03:26:42;102853.09;;;2.31;100.00
31538;BME280;18147;51.952;6.146;2023-11-22T03:29:08;102847.81;;;2.36;100.00
31538;BME280;18147;51.952;6.146;2023-11-22T03:31:33;102851.34;;;2.31;100.00
31538;BME280;18147;51.952;6.146;2023-11-22T03:33:59;102854.84;;;2.33;100.00
31538;BME280;18147;51.952;6.146;2023-11-22T03:36:25;102849.53;;;2.24;100.00
31538;BME280;18147;51.952;6.146;2023-11-22T03:38:51;102857.44;;;2.24;100.00
31538;BME280;18147;51.952;6.146;2023-11-22T03:41:16;102876.75;;;2.26;100.00
31538;BME280;18147;51.952;6.146;2023-11-22T03:43:46;102880.25;;;2.22;100.00
31538;BME280;18147;51.952;6.146;2023-11-22T03:46:12;102890.78;;;2.30;100.00
31538;BME280;18147;51.952;6.146;2023-11-22T03:48:39;102904.84;;;2.33;100.00
31538;BME280;18147;51.952;6.146;2023-11-22T03:51:04;102910.97;;;2.29;100.00
31538;BME280;18147;51.952;6.146;2023-11-22T03:53:30;102920.63;;;2.29;100.00
31538;BME280;18147;51.952;6.146;2023-11-22T03:55:57;102918.91;;;2.34;100.00
31538;BME280;18147;51.952;6.146;2023-11-22T03:58:22;102930.28;;;2.28;100.00
31538;BME280;18147;51.952;6.146;2023-11-22T04:00:48;102927.66;;;2.34;100.00
31538;BME280;18147;51.952;6.146;2023-11-22T04:03:13;102937.31;;;2.32;100.00
31538;BME280;18147;51.952;6.146;2023-11-22T04:05:39;102941.69;;;2.30;100.00
31538;BME280;18147;51.952;6.146;2023-11-22T04:08:04;102947.81;;;2.29;100.00
31538;BME280;18147;51.952;6.146;2023-11-22T04:10:30;102953.09;;;2.28;100.00
31538;BME280;18147;51.952;6.146;2023-11-22T04:12:56;102953.84;;;2.10;100.00
31538;BME280;18147;51.952;6.146;2023-11-22T04:15:22;102948.56;;;2.04;100.00
31538;BME280;18147;51.952;6.146;2023-11-22T04:17:47;102947.69;;;2.03;100.00
31538;BME280;18147;51.952;6.146;2023-11-22T04:20:15;102945.00;;;1.94;100.00
31538;BME280;18147;51.952;6.146;2023-11-22T04:22:44;102945.88;;;1.95;100.00
31538;BME280;18147;51.952;6.146;2023-11-22T04:25:13;102946.84;;;2.06;100.00
31538;BME280;18147;51.952;6.146;2023-11-22T04:27:41;102947.75;;;2.13;100.00
31538;BME280;18147;51.952;6.146;2023-11-22T04:30:08;102947.75;;;2.16;100.00
31538;BME280;18147;51.952;6.146;2023-11-22T04:32:36;102949.47;;;2.07;100.00
31538;BME280;18147;51.952;6.146;2023-11-22T04:35:02;102950.28;;;1.96;100.00
31538;BME280;18147;51.952;6.146;2023-11-22T04:37:30;102947.66;;;1.97;100.00
31538;BME280;18147;51.952;6.146;2023-11-22T04:40:00;102951.16;;;1.96;100.00
31538;BME280;18147;51.952;6.146;2023-11-22T04:42:34;102945.00;;;1.91;100.00
31538;BME280;18147;51.952;6.146;2023-11-22T04:44:59;102945.84;;;1.87;100.00
31538;BME280;18147;51.952;6.146;2023-11-22T04:47:24;102948.44;;;1.86;100.00
31538;BME280;18147;51.952;6.146;2023-11-22T04:49:50;102948.44;;;1.81;100.00
31538;BME280;18147;51.952;6.146;2023-11-22T04:52:16;102943.16;;;1.76;100.00
31538;BME280;18147;51.952;6.146;2023-11-22T04:54:41;102946.66;;;1.77;100.00
31538;BME280;18147;51.952;6.146;2023-11-22T04:57:07;102937.88;;;1.76;100.00
31538;BME280;18147;51.952;6.146;2023-11-22T04:59:32;102947.50;;;1.71;100.00
31538;BME280;18147;51.952;6.146;2023-11-22T05:01:58;102946.69;;;1.81;100.00
31538;BME280;18147;51.952;6.146;2023-11-22T05:04:23;102958.13;;;1.87;100.00
31538;BME280;18147;51.952;6.146;2023-11-22T05:06:49;102959.81;;;1.80;100.00
31538;BME280;18147;51.952;6.146;2023-11-22T05:09:14;102959.69;;;1.65;100.00
31538;BME280;18147;51.952;6.146;2023-11-22T05:11:41;102953.59;;;1.66;100.00
31538;BME280;18147;51.952;6.146;2023-11-22T05:14:07;102954.34;;;1.54;100.00
31538;BME280;18147;51.952;6.146;2023-11-22T05:16:33;102947.34;;;1.53;100.00
31538;BME280;18147;51.952;6.146;2023-11-22T05:18:59;102948.25;;;1.60;100.00
31538;BME280;18147;51.952;6.146;2023-11-22T05:21:24;102945.63;;;1.58;100.00
31538;BME280;18147;51.952;6.146;2023-11-22T05:23:50;102944.75;;;1.56;100.00
31538;BME280;18147;51.952;6.146;2023-11-22T05:26:15;102952.50;;;1.44;100.00
31538;BME280;18147;51.952;6.146;2023-11-22T05:28:41;102940.38;;;1.57;100.00
31538;BME280;18147;51.952;6.146;2023-11-22T05:31:06;102936.88;;;1.61;100.00
31538;BME280;18147;51.952;6.146;2023-11-22T05:33:32;102938.66;;;1.62;100.00
31538;BME280;18147;51.952;6.146;2023-11-22T05:35:57;102933.31;;;1.55;100.00
31538;BME280;18147;51.952;6.146;2023-11-22T05:38:23;102932.47;;;1.57;100.00
31538;BME280;18147;51.952;6.146;2023-11-22T05:40:48;102929.84;;;1.60;100.00
31538;BME280;18147;51.952;6.146;2023-11-22T05:43:14;102927.25;;;1.63;100.00
31538;BME280;18147;51.952;6.146;2023-11-22T05:45:40;102938.66;;;1.63;100.00
31538;BME280;18147;51.952;6.146;2023-11-22T05:48:05;102945.66;;;1.64;100.00
31538;BME280;18147;51.952;6.146;2023-11-22T05:50:31;102942.19;;;1.68;100.00
31538;BME280;18147;51.952;6.146;2023-11-22T05:52:56;102938.75;;;1.77;100.00
31538;BME280;18147;51.952;6.146;2023-11-22T05:55:22;102940.53;;;1.81;100.00
31538;BME280;18147;51.952;6.146;2023-11-22T05:57:48;102937.91;;;1.83;100.00
31538;BME280;18147;51.952;6.146;2023-11-22T06:00:14;102941.47;;;1.86;100.00
31538;BME280;18147;51.952;6.146;2023-11-22T06:02:41;102941.50;;;1.94;100.00
31538;BME280;18147;51.952;6.146;2023-11-22T06:05:06;102963.41;;;1.94;100.00
31538;BME280;18147;51.952;6.146;2023-11-22T06:07:32;102967.78;;;1.95;100.00
31538;BME280;18147;51.952;6.146;2023-11-22T06:09:57;102967.78;;;1.92;100.00
31538;BME280;18147;51.952;6.146;2023-11-22T06:12:23;102966.06;;;1.97;100.00
31538;BME280;18147;51.952;6.146;2023-11-22T06:14:48;102966.09;;;2.05;100.00
31538;BME280;18147;51.952;6.146;2023-11-22T06:17:14;102981.91;;;2.02;100.00
31538;BME280;18147;51.952;6.146;2023-11-22T06:19:40;102981.91;;;2.02;100.00
31538;BME280;18147;51.952;6.146;2023-11-22T06:22:07;102982.75;;;1.98;100.00
31538;BME280;18147;51.952;6.146;2023-11-22T06:24:33;102981.91;;;2.02;100.00
31538;BME280;18147;51.952;6.146;2023-11-22T06:27:01;102972.28;;;2.07;100.00
31538;BME280;18147;51.952;6.146;2023-11-22T06:29:27;102981.97;;;2.11;100.00
31538;BME280;18147;51.952;6.146;2023-11-22T06:31:52;102988.03;;;2.02;100.00
31538;BME280;18147;51.952;6.146;2023-11-22T06:34:17;102981.03;;;2.04;100.00
31538;BME280;18147;51.952;6.146;2023-11-22T06:36:43;102980.13;;;2.02;100.00
31538;BME280;18147;51.952;6.146;2023-11-22T06:39:08;102989.81;;;2.08;100.00
31538;BME280;18147;51.952;6.146;2023-11-22T06:41:34;102985.44;;;2.07;100.00
31538;BME280;18147;51.952;6.146;2023-11-22T06:44:00;102994.22;;;2.07;100.00
31538;BME280;18147;51.952;6.146;2023-11-22T06:46:25;103002.94;;;2.02;100.00
31538;BME280;18147;51.952;6.146;2023-11-22T06:48:51;103010.78;;;1.94;100.00
31538;BME280;18147;51.952;6.146;2023-11-22T06:51:16;103016.88;;;1.90;100.00
31538;BME280;18147;51.952;6.146;2023-11-22T06:53:44;103024.84;;;1.98;100.00
31538;BME280;18147;51.952;6.146;2023-11-22T06:56:10;103031.84;;;2.00;100.00
31538;BME280;18147;51.952;6.146;2023-11-22T06:58:36;103033.63;;;2.03;100.00
31538;BME280;18147;51.952;6.146;2023-11-22T07:01:01;103017.88;;;2.07;100.00
31538;BME280;18147;51.952;6.146;2023-11-22T07:03:27;103020.56;;;2.15;100.00
31538;BME280;18147;51.952;6.146;2023-11-22T07:05:52;103013.56;;;2.17;100.00
31538;BME280;18147;51.952;6.146;2023-11-22T07:08:18;103004.72;;;2.09;100.00
31538;BME280;18147;51.952;6.146;2023-11-22T07:10:44;102997.75;;;2.16;100.00
31538;BME280;18147;51.952;6.146;2023-11-22T07:13:11;102996.00;;;2.13;100.00
31538;BME280;18147;51.952;6.146;2023-11-22T07:15:38;102991.59;;;2.12;100.00
31538;BME280;18147;51.952;6.146;2023-11-22T07:18:04;102998.56;;;2.04;100.00
31538;BME280;18147;51.952;6.146;2023-11-22T07:20:30;102995.13;;;2.16;100.00
31538;BME280;18147;51.952;6.146;2023-11-22T07:22:56;102984.59;;;2.16;100.00
31538;BME280;18147;51.952;6.146;2023-11-22T07:25:23;102989.84;;;2.11;100.00
31538;BME280;18147;51.952;6.146;2023-11-22T07:27:52;102995.13;;;2.16;100.00
31538;BME280;18147;51.952;6.146;2023-11-22T07:30:20;102989.13;;;2.37;100.00
31538;BME280;18147;51.952;6.146;2023-11-22T07:32:51;102981.22;;;2.38;100.00
31538;BME280;18147;51.952;6.146;2023-11-22T07:35:19;102983.03;;;2.47;100.00
31538;BME280;18147;51.952;6.146;2023-11-22T07:37:47;102989.16;;;2.49;100.00
31538;BME280;18147;51.952;6.146;2023-11-22T07:40:14;102981.25;;;2.50;100.00
31538;BME280;18147;51.952;6.146;2023-11-22T07:42:40;102985.69;;;2.56;100.00
31538;BME280;18147;51.952;6.146;2023-11-22T07:45:06;102977.81;;;2.62;100.00
31538;BME280;18147;51.952;6.146;2023-11-22T07:47:32;102984.84;;;2.65;100.00
31538;BME280;18147;51.952;6.146;2023-11-22T07:49:57;103003.22;;;2.55;100.00
31538;BME280;18147;51.952;6.146;2023-11-22T07:52:24;103000.66;;;2.65;100.00
31538;BME280;18147;51.952;6.146;2023-11-22T07:54:58;103012.13;;;2.71;100.00
31538;BME280;18147;51.952;6.146;2023-11-22T07:57:23;103018.25;;;2.81;100.00
31538;BME280;18147;51.952;6.146;2023-11-22T07:59:49;103015.69;;;2.92;100.00
31538;BME280;18147;51.952;6.146;2023-11-22T08:02:16;103019.22;;;2.98;100.00
31538;BME280;18147;51.952;6.146;2023-11-22T08:04:44;103016.59;;;3.06;100.00
31538;BME280;18147;51.952;6.146;2023-11-22T08:07:11;103010.47;;;3.15;100.00
31538;BME280;18147;51.952;6.146;2023-11-22T08:09:40;103003.47;;;3.17;100.00
31538;BME280;18147;51.952;6.146;2023-11-22T08:12:07;103017.53;;;3.23;100.00
31538;BME280;18147;51.952;6.146;2023-11-22T08:14:32;103007.00;;;3.26;100.00
31538;BME280;18147;51.952;6.146;2023-11-22T08:16:58;103012.31;;;3.37;100.00
31538;BME280;18147;51.952;6.146;2023-11-22T08:19:24;103021.97;;;3.47;100.00
31538;BME280;18147;51.952;6.146;2023-11-22T08:21:50;103042.19;;;3.56;100.00
31538;BME280;18147;51.952;6.146;2023-11-22T08:24:15;103035.19;;;3.58;100.00
31538;BME280;18147;51.952;6.146;2023-11-22T08:26:41;103036.94;;;3.68;100.00
31538;BME280;18147;51.952;6.146;2023-11-22T08:29:06;103041.34;;;3.72;100.00
31538;BME280;18147;51.952;6.146;2023-11-22T08:31:33;103034.31;;;3.77;100.00
31538;BME280;18147;51.952;6.146;2023-11-22T08:33:59;103041.31;;;3.64;100.00
31538;BME280;18147;51.952;6.146;2023-11-22T08:36:25;103045.75;;;3.78;100.00
31538;BME280;18147;51.952;6.146;2023-11-22T08:38:50;103064.19;;;3.90;100.00
31538;BME280;18147;51.952;6.146;2023-11-22T08:41:16;103068.59;;;3.96;100.00
31538;BME280;18147;51.952;6.146;2023-11-22T08:43:42;103061.56;;;4.05;100.00
31538;BME280;18147;51.952;6.146;2023-11-22T08:46:07;103060.66;;;4.15;100.00
31538;BME280;18147;51.952;6.146;2023-11-22T08:48:33;103058.03;;;4.23;100.00
31538;BME280;18147;51.952;6.146;2023-11-22T08:51:00;103048.38;;;4.18;100.00
31538;BME280;18147;51.952;6.146;2023-11-22T08:53:26;103040.47;;;3.95;100.00
31538;BME280;18147;51.952;6.146;2023-11-22T08:55:52;103048.38;;;3.73;100.00
31538;BME280;18147;51.952;6.146;2023-11-22T08:58:20;103056.25;;;3.61;100.00
31538;BME280;18147;51.952;6.146;2023-11-22T09:00:45;103071.25;;;3.77;100.00
31538;BME280;18147;51.952;6.146;2023-11-22T09:03:11;103069.50;;;3.93;100.00
31538;BME280;18147;51.952;6.146;2023-11-22T09:05:42;103070.38;;;3.94;100.00
31538;BME280;18147;51.952;6.146;2023-11-22T09:08:08;103060.69;;;4.17;100.00
31538;BME280;18147;51.952;6.146;2023-11-22T09:10:38;103061.56;;;4.18;100.00
31538;BME280;18147;51.952;6.146;2023-11-22T09:13:04;103058.06;;;4.17;100.00
31538;BME280;18147;51.952;6.146;2023-11-22T09:15:31;103057.19;;;3.97;100.00
31538;BME280;18147;51.952;6.146;2023-11-22T09:17:59;103055.44;;;3.82;100.00
31538;BME280;18147;51.952;6.146;2023-11-22T09:20:24;103052.78;;;3.88;100.00
31538;BME280;18147;51.952;6.146;2023-11-22T09:22:54;103046.59;;;4.24;100.00
31538;BME280;18147;51.952;6.146;2023-11-22T09:25:20;103050.09;;;4.35;100.00
31538;BME280;18147;51.952;6.146;2023-11-22T09:27:48;103061.50;;;4.47;100.00
31538;BME280;18147;51.952;6.146;2023-11-22T09:30:15;103061.56;;;4.10;100.00
31538;BME280;18147;51.952;6.146;2023-11-22T09:33:04;103053.63;;;4.11;100.00
31538;BME280;18147;51.952;6.146;2023-11-22T09:35:31;103068.56;;;4.35;100.00
31538;BME280;18147;51.952;6.146;2023-11-22T09:38:04;103063.28;;;4.31;100.00
31538;BME280;18147;51.952;6.146;2023-11-22T09:40:48;103060.66;;;4.38;100.00
31538;BME280;18147;51.952;6.146;2023-11-22T09:43:18;103058.03;;;4.37;100.00
31538;BME280;18147;51.952;6.146;2023-11-22T09:45:46;103050.00;;;4.66;100.00
31538;BME280;18147;51.952;6.146;2023-11-22T09:51:04;103048.31;;;4.44;100.00
31538;BME280;18147;51.952;6.146;2023-11-22T09:53:52;103052.59;;;4.77;100.00
31538;BME280;18147;51.952;6.146;2023-11-22T09:56:19;103054.28;;;4.96;100.00
31538;BME280;18147;51.952;6.146;2023-11-22T09:58:45;103059.53;;;5.13;100.00
31538;BME280;18147;51.952;6.146;2023-11-22T10:01:13;103054.31;;;4.93;100.00
31538;BME280;18147;51.952;6.146;2023-11-22T10:03:39;103050.66;;;5.23;100.00
31538;BME280;18147;51.952;6.146;2023-11-22T10:06:05;103046.16;;;5.37;100.00
31538;BME280;18147;51.952;6.146;2023-11-22T10:08:31;103042.63;;;5.35;100.00
31538;BME280;18147;51.952;6.146;2023-11-22T10:10:57;103042.69;;;5.26;100.00
31538;BME280;18147;51.952;6.146;2023-11-22T10:13:22;103044.38;;;5.42;100.00
31538;BME280;18147;51.952;6.146;2023-11-22T10:15:48;103044.25;;;5.58;100.00
31538;BME280;18147;51.952;6.146;2023-11-22T10:18:14;103037.91;;;5.77;100.00
31538;BME280;18147;51.952;6.146;2023-11-22T10:20:41;103049.53;;;5.59;100.00
31538;BME280;18147;51.952;6.146;2023-11-22T10:23:10;103056.66;;;5.53;100.00
31538;BME280;18147;51.952;6.146;2023-11-22T10:25:56;103042.59;;;5.40;100.00
31538;BME280;18147;51.952;6.146;2023-11-22T10:28:26;103052.97;;;5.72;100.00
31538;BME280;18147;51.952;6.146;2023-11-22T10:30:53;103048.44;;;5.92;100.00
31538;BME280;18147;51.952;6.146;2023-11-22T10:33:19;103049.13;;;6.11;100.00
31538;BME280;18147;51.952;6.146;2023-11-22T10:35:49;103032.38;;;6.11;100.00
31538;BME280;18147;51.952;6.146;2023-11-22T10:38:19;103023.38;;;6.29;100.00
31538;BME280;18147;51.952;6.146;2023-11-22T10:40:45;103021.59;;;6.29;100.00
31538;BME280;18147;51.952;6.146;2023-11-22T10:43:21;103010.72;;;6.54;100.00
31538;BME280;18147;51.952;6.146;2023-11-22T10:45:51;103006.31;;;6.54;100.00
31538;BME280;18147;51.952;6.146;2023-11-22T10:48:18;103001.84;;;6.58;100.00
31538;BME280;18147;51.952;6.146;2023-11-22T10:50:47;102983.19;;;6.65;100.00
31538;BME280;18147;51.952;6.146;2023-11-22T10:53:15;102978.78;;;6.64;100.00
31538;BME280;18147;51.952;6.146;2023-11-22T10:55:45;102967.31;;;6.62;100.00
31538;BME280;18147;51.952;6.146;2023-11-22T10:58:13;102966.31;;;6.71;100.00
31538;BME280;18147;51.952;6.146;2023-11-22T11:00:41;102974.41;;;6.60;100.00
31538;BME280;18147;51.952;6.146;2023-11-22T11:03:14;102968.13;;;6.69;100.00
31538;BME280;18147;51.952;6.146;2023-11-22T11:05:49;102963.75;;;6.65;100.00
31538;BME280;18147;51.952;6.146;2023-11-22T11:08:17;102969.88;;;6.70;100.00
31538;BME280;18147;51.952;6.146;2023-11-22T11:10:45;102960.53;;;6.40;100.00
31538;BME280;18147;51.952;6.146;2023-11-22T11:13:12;102953.31;;;6.53;100.00
31538;BME280;18147;51.952;6.146;2023-11-22T11:15:43;102955.13;;;6.47;100.00
31538;BME280;18147;51.952;6.146;2023-11-22T11:18:12;102962.34;;;6.38;100.00
31538;BME280;18147;51.952;6.146;2023-11-22T11:20:58;102966.97;;;6.16;100.00
31538;BME280;18147;51.952;6.146;2023-11-22T11:23:28;102973.84;;;6.35;100.00
31538;BME280;18147;51.952;6.146;2023-11-22T11:25:55;102969.22;;;6.51;100.00
31538;BME280;18147;51.952;6.146;2023-11-22T11:28:22;102957.66;;;6.57;100.00
31538;BME280;18147;51.952;6.146;2023-11-22T11:30:51;102944.38;;;6.60;100.00
31538;BME280;18147;51.952;6.146;2023-11-22T11:33:33;102918.75;;;6.60;100.00
31538;BME280;18147;51.952;6.146;2023-11-22T11:36:02;102916.16;;;6.56;100.00
31538;BME280;18147;51.952;6.146;2023-11-22T11:38:34;102909.34;;;6.36;100.00
31538;BME280;18147;51.952;6.146;2023-11-22T11:41:09;102882.72;;;6.45;100.00
31538;BME280;18147;51.952;6.146;2023-11-22T11:43:46;102876.63;;;6.40;100.00
31538;BME280;18147;51.952;6.146;2023-11-22T11:46:13;102871.34;;;6.39;100.00
31538;BME280;18147;51.952;6.146;2023-11-22T11:48:47;102868.91;;;6.20;100.00
31538;BME280;18147;51.952;6.146;2023-11-22T11:51:14;102856.66;;;6.13;100.00
31538;BME280;18147;51.952;6.146;2023-11-22T11:53:40;102848.72;;;6.13;100.00
31538;BME280;18147;51.952;6.146;2023-11-22T11:56:07;102848.69;;;6.15;100.00
31538;BME280;18147;51.952;6.146;2023-11-22T11:58:32;102843.41;;;6.12;100.00
31538;BME280;18147;51.952;6.146;2023-11-22T12:00:58;102853.13;;;6.13;100.00
31538;BME280;18147;51.952;6.146;2023-11-22T12:03:24;102857.44;;;6.20;100.00
31538;BME280;18147;51.952;6.146;2023-11-22T12:05:49;102850.13;;;6.40;100.00
31538;BME280;18147;51.952;6.146;2023-11-22T12:08:15;102857.97;;;6.46;100.00
31538;BME280;18147;51.952;6.146;2023-11-22T12:10:43;102846.47;;;6.49;100.00
31538;BME280;18147;51.952;6.146;2023-11-22T12:13:09;102836.75;;;6.49;100.00
31538;BME280;18147;51.952;6.146;2023-11-22T12:15:35;102814.63;;;6.51;100.00
31538;BME280;18147;51.952;6.146;2023-11-22T12:18:01;102825.13;;;6.57;100.00
31538;BME280;18147;51.952;6.146;2023-11-22T12:20:27;102829.44;;;6.65;100.00
31538;BME280;18147;51.952;6.146;2023-11-22T12:22:57;102839.16;;;6.65;100.00
31538;BME280;18147;51.952;6.146;2023-11-22T12:25:26;102843.53;;;6.69;100.00
31538;BME280;18147;51.952;6.146;2023-11-22T12:27:54;102846.16;;;6.70;100.00
31538;BME280;18147;51.952;6.146;2023-11-22T12:30:30;102862.09;;;6.69;100.00
31538;BME280;18147;51.952;6.146;2023-11-22T12:32:59;102858.63;;;6.62;100.00
31538;BME280;18147;51.952;6.146;2023-11-22T12:35:25;102849.31;;;6.35;100.00
31538;BME280;18147;51.952;6.146;2023-11-22T12:37:50;102826.28;;;6.37;100.00
31538;BME280;18147;51.952;6.146;2023-11-22T12:40:16;102838.00;;;6.21;100.00
31538;BME280;18147;51.952;6.146;2023-11-22T12:42:51;102843.91;;;6.43;100.00
31538;BME280;18147;51.952;6.146;2023-11-22T12:45:25;102840.31;;;6.45;100.00
31538;BME280;18147;51.952;6.146;2023-11-22T12:47:52;102849.88;;;6.57;100.00
31538;BME280;18147;51.952;6.146;2023-11-22T12:50:37;102835.69;;;6.63;100.00
31538;BME280;18147;51.952;6.146;2023-11-22T12:53:10;102834.72;;;6.68;100.00